createdAt,value
2017-05-22T00:00:45.430Z,0
2017-05-22T00:01:57.983Z,0
2017-05-22T00:03:10.878Z,0
2017-05-22T00:04:23.124Z,0
2017-05-22T00:05:35.406Z,0
2017-05-22T00:06:47.977Z,0
2017-05-22T00:08:00.279Z,0
2017-05-22T00:09:12.826Z,0
2017-05-22T00:10:24.795Z,0
2017-05-22T00:11:37.143Z,0
2017-05-22T00:12:49.746Z,0
2017-05-22T00:14:02.310Z,0
2017-05-22T00:15:14.863Z,0
2017-05-22T00:16:26.834Z,0
2017-05-22T00:17:39.397Z,0
2017-05-22T00:18:51.975Z,0
2017-05-22T00:20:04.545Z,0
2017-05-22T00:21:16.842Z,0
2017-05-22T00:22:29.438Z,0
2017-05-22T00:23:42.012Z,0
2017-05-22T00:24:54.587Z,0
2017-05-22T00:26:07.144Z,0
2017-05-22T00:27:19.466Z,0
2017-05-22T00:28:32.020Z,0
2017-05-22T00:29:44.283Z,0
2017-05-22T00:30:56.852Z,0
2017-05-22T00:32:09.430Z,0
2017-05-22T00:33:22.019Z,0
2017-05-22T00:34:34.314Z,0
2017-05-22T00:35:46.838Z,0
2017-05-22T00:36:59.409Z,0
2017-05-22T00:38:11.985Z,0
2017-05-22T00:39:24.531Z,0
2017-05-22T00:40:37.121Z,0
2017-05-22T00:41:49.091Z,0
2017-05-22T00:43:01.639Z,0
2017-05-22T00:44:13.883Z,0
2017-05-22T00:45:26.435Z,0
2017-05-22T00:46:39.281Z,0
2017-05-22T00:47:51.853Z,0
2017-05-22T00:49:04.536Z,0
2017-05-22T00:50:16.819Z,0
2017-05-22T00:51:29.165Z,0
2017-05-22T00:52:41.736Z,0
2017-05-22T00:53:54.307Z,0
2017-05-22T00:55:06.902Z,0
2017-05-22T00:56:19.192Z,0
2017-05-22T00:57:31.437Z,0
2017-05-22T00:58:43.983Z,0
2017-05-22T00:59:56.248Z,0
2017-05-22T01:01:08.802Z,0
2017-05-22T01:02:21.371Z,0
2017-05-22T01:03:33.910Z,0
2017-05-22T01:04:46.415Z,0
2017-05-22T01:05:58.990Z,0
2017-05-22T01:07:10.988Z,0
2017-05-22T01:08:23.575Z,0
2017-05-22T01:09:35.872Z,0
2017-05-22T01:10:48.443Z,0
2017-05-22T01:12:01.014Z,0
2017-05-22T01:13:13.290Z,0
2017-05-22T01:14:25.540Z,0
2017-05-22T01:15:38.109Z,0
2017-05-22T01:16:50.704Z,0
2017-05-22T01:18:02.944Z,0
2017-05-22T01:19:15.820Z,0
2017-05-22T01:20:28.395Z,0
2017-05-22T01:21:40.956Z,0
2017-05-22T01:22:53.534Z,0
2017-05-22T01:24:06.115Z,0
2017-05-22T01:25:18.376Z,0
2017-05-22T01:26:30.638Z,0
2017-05-22T01:27:43.193Z,0
2017-05-22T01:28:55.757Z,0
2017-05-22T01:30:08.309Z,0
2017-05-22T01:31:20.859Z,0
2017-05-22T01:32:33.118Z,0
2017-05-22T01:33:45.689Z,0
2017-05-22T01:34:58.261Z,0
2017-05-22T01:36:10.864Z,0
2017-05-22T01:37:23.463Z,0
2017-05-22T01:38:35.418Z,0
2017-05-22T01:39:48.002Z,0
2017-05-22T01:41:00.898Z,0
2017-05-22T01:42:13.185Z,0
2017-05-22T01:43:25.433Z,0
2017-05-22T01:44:37.385Z,0
2017-05-22T01:45:49.950Z,0
2017-05-22T01:47:02.448Z,0
2017-05-22T01:48:14.723Z,0
2017-05-22T01:49:27.288Z,0
2017-05-22T01:50:39.808Z,0
2017-05-22T01:51:52.079Z,0
2017-05-22T01:53:04.625Z,0
2017-05-22T01:54:16.921Z,0
2017-05-22T01:55:28.860Z,0
2017-05-22T01:56:41.439Z,0
2017-05-22T01:57:53.690Z,0
2017-05-22T01:59:06.255Z,0
2017-05-22T02:00:18.832Z,0
2017-05-22T02:01:31.397Z,0
2017-05-22T02:02:43.968Z,0
2017-05-22T02:03:56.545Z,0
2017-05-22T02:05:08.782Z,0
2017-05-22T02:06:21.034Z,0
2017-05-22T02:07:33.557Z,0
2017-05-22T02:08:46.147Z,0
2017-05-22T02:09:58.674Z,0
2017-05-22T02:11:10.895Z,0
2017-05-22T02:12:23.409Z,0
2017-05-22T02:13:35.990Z,0
2017-05-22T02:14:48.558Z,4
2017-05-22T02:16:01.125Z,4
2017-05-22T02:17:13.424Z,4
2017-05-22T02:18:25.690Z,0
2017-05-22T02:19:38.210Z,0
2017-05-22T02:20:50.762Z,4
2017-05-22T02:22:03.332Z,4
2017-05-22T02:23:15.575Z,4
2017-05-22T02:24:28.120Z,4
2017-05-22T02:25:40.647Z,4
2017-05-22T02:26:53.242Z,4
2017-05-22T02:28:05.530Z,8
2017-05-22T02:29:17.836Z,12
2017-05-22T02:30:30.352Z,8
2017-05-22T02:31:42.868Z,12
2017-05-22T02:32:55.446Z,12
2017-05-22T02:34:08.048Z,12
2017-05-22T02:35:20.332Z,16
2017-05-22T02:36:32.852Z,20
2017-05-22T02:37:45.124Z,24
2017-05-22T02:38:57.661Z,28
2017-05-22T02:40:10.216Z,32
2017-05-22T02:41:22.786Z,36
2017-05-22T02:42:35.313Z,40
2017-05-22T02:43:47.578Z,44
2017-05-22T02:45:00.151Z,52
2017-05-22T02:46:12.692Z,60
2017-05-22T02:47:25.257Z,68
2017-05-22T02:48:37.793Z,80
2017-05-22T02:49:49.740Z,84
2017-05-22T02:51:02.354Z,100
2017-05-22T02:52:14.581Z,112
2017-05-22T02:53:27.156Z,120
2017-05-22T02:54:39.417Z,136
2017-05-22T02:55:51.937Z,152
2017-05-22T02:57:04.531Z,164
2017-05-22T02:58:17.128Z,184
2017-05-22T02:59:29.385Z,204
2017-05-22T03:00:41.947Z,220
2017-05-22T03:01:54.486Z,236
2017-05-22T03:03:07.042Z,256
2017-05-22T03:04:19.615Z,276
2017-05-22T03:05:31.861Z,292
2017-05-22T03:06:44.442Z,308
2017-05-22T03:07:57.247Z,328
2017-05-22T03:09:09.798Z,348
2017-05-22T03:10:22.363Z,368
2017-05-22T03:11:34.315Z,392
2017-05-22T03:12:46.923Z,412
2017-05-22T03:13:59.499Z,436
2017-05-22T03:15:12.097Z,456
2017-05-22T03:16:24.667Z,476
2017-05-22T03:17:36.919Z,500
2017-05-22T03:18:49.191Z,524
2017-05-22T03:20:01.738Z,544
2017-05-22T03:21:14.301Z,568
2017-05-22T03:22:26.532Z,592
2017-05-22T03:23:38.796Z,612
2017-05-22T03:24:51.356Z,644
2017-05-22T03:26:03.585Z,668
2017-05-22T03:27:15.531Z,696
2017-05-22T03:28:28.095Z,728
2017-05-22T03:29:40.996Z,756
2017-05-22T03:30:53.544Z,788
2017-05-22T03:32:06.125Z,820
2017-05-22T03:33:18.711Z,852
2017-05-22T03:34:31.282Z,888
2017-05-22T03:35:43.803Z,928
2017-05-22T03:36:56.355Z,972
2017-05-22T03:38:08.895Z,1012
2017-05-22T03:39:21.426Z,1060
2017-05-22T03:40:33.686Z,1120
2017-05-22T03:41:46.200Z,1184
2017-05-22T03:42:58.736Z,1256
2017-05-22T03:44:10.982Z,1328
2017-05-22T03:45:23.569Z,1388
2017-05-22T03:46:36.122Z,1440
2017-05-22T03:47:48.668Z,1496
2017-05-22T03:49:01.251Z,1544
2017-05-22T03:50:13.459Z,1588
2017-05-22T03:51:26.056Z,1644
2017-05-22T03:52:38.677Z,1728
2017-05-22T03:53:51.191Z,1820
2017-05-22T03:55:03.737Z,1908
2017-05-22T03:56:16.331Z,1992
2017-05-22T03:57:28.928Z,2080
2017-05-22T03:58:41.467Z,2160
2017-05-22T03:59:54.046Z,2252
2017-05-22T04:01:06.567Z,2352
2017-05-22T04:02:19.112Z,2460
2017-05-22T04:03:31.335Z,2564
2017-05-22T04:04:43.879Z,2668
2017-05-22T04:05:56.424Z,2780
2017-05-22T04:07:08.978Z,2884
2017-05-22T04:08:21.848Z,2980
2017-05-22T04:09:34.162Z,3084
2017-05-22T04:10:46.692Z,3208
2017-05-22T04:11:59.279Z,3316
2017-05-22T04:13:11.881Z,3412
2017-05-22T04:14:24.447Z,3508
2017-05-22T04:15:36.967Z,3616
2017-05-22T04:16:48.919Z,3748
2017-05-22T04:18:01.540Z,3884
2017-05-22T04:19:14.112Z,4020
2017-05-22T04:20:26.651Z,4152
2017-05-22T04:21:38.903Z,4244
2017-05-22T04:22:51.443Z,4316
2017-05-22T04:24:03.981Z,4408
2017-05-22T04:25:15.934Z,4484
2017-05-22T04:26:28.504Z,4544
2017-05-22T04:27:40.757Z,4612
2017-05-22T04:28:52.404Z,4700
2017-05-22T04:30:04.960Z,4816
2017-05-22T04:31:17.240Z,4908
2017-05-22T04:32:29.878Z,5012
2017-05-22T04:33:42.504Z,5156
2017-05-22T04:34:55.083Z,5356
2017-05-22T04:36:07.623Z,5620
2017-05-22T04:37:20.169Z,5908
2017-05-22T04:38:32.119Z,6160
2017-05-22T04:39:44.669Z,6336
2017-05-22T04:40:57.230Z,6416
2017-05-22T04:42:09.459Z,6480
2017-05-22T04:43:22.029Z,6588
2017-05-22T04:44:34.300Z,6740
2017-05-22T04:45:47.116Z,6996
2017-05-22T04:46:59.661Z,7364
2017-05-22T04:48:11.644Z,7656
2017-05-22T04:49:24.196Z,7836
2017-05-22T04:50:36.459Z,7968
2017-05-22T04:51:49.026Z,8092
2017-05-22T04:53:01.582Z,8240
2017-05-22T04:54:13.829Z,8368
2017-05-22T04:55:26.357Z,8468
2017-05-22T04:56:38.603Z,8564
2017-05-22T04:57:51.126Z,8608
2017-05-22T04:59:03.695Z,8644
2017-05-22T05:00:16.247Z,8680
2017-05-22T05:01:28.787Z,8728
2017-05-22T05:02:41.007Z,8792
2017-05-22T05:03:53.528Z,8912
2017-05-22T05:05:05.824Z,8964
2017-05-22T05:06:18.114Z,8932
2017-05-22T05:07:30.397Z,8900
2017-05-22T05:08:42.685Z,8892
2017-05-22T05:09:55.258Z,9076
2017-05-22T05:11:07.789Z,9176
2017-05-22T05:12:20.350Z,9384
2017-05-22T05:13:32.602Z,10188
2017-05-22T05:14:44.851Z,10424
2017-05-22T05:15:57.419Z,10244
2017-05-22T05:17:10.014Z,10460
2017-05-22T05:18:22.510Z,10720
2017-05-22T05:19:34.782Z,10848
2017-05-22T05:20:47.352Z,10856
2017-05-22T05:21:59.017Z,10448
2017-05-22T05:23:11.295Z,10312
2017-05-22T05:24:23.885Z,10404
2017-05-22T05:25:36.156Z,10336
2017-05-22T05:26:48.707Z,10884
2017-05-22T05:28:01.278Z,11216
2017-05-22T05:29:13.567Z,10364
2017-05-22T05:30:26.131Z,10540
2017-05-22T05:31:38.691Z,10680
2017-05-22T05:32:51.011Z,10924
2017-05-22T05:34:03.601Z,11480
2017-05-22T05:35:16.154Z,12080
2017-05-22T05:36:28.719Z,11568
2017-05-22T05:37:41.240Z,11460
2017-05-22T05:38:53.819Z,11856
2017-05-22T05:40:06.710Z,11876
2017-05-22T05:41:18.969Z,12512
2017-05-22T05:42:31.550Z,11784
2017-05-22T05:43:44.124Z,11204
2017-05-22T05:44:56.640Z,10688
2017-05-22T05:46:09.192Z,10508
2017-05-22T05:47:21.737Z,10680
2017-05-22T05:48:34.338Z,10868
2017-05-22T05:49:46.924Z,10676
2017-05-22T05:50:59.511Z,10284
2017-05-22T05:52:11.496Z,9804
2017-05-22T05:53:23.843Z,9380
2017-05-22T05:54:36.408Z,9268
2017-05-22T05:55:48.732Z,9252
2017-05-22T05:57:01.299Z,9616
2017-05-22T05:58:13.850Z,9556
2017-05-22T05:59:26.165Z,9788
2017-05-22T06:00:38.743Z,9228
2017-05-22T06:01:51.258Z,9840
2017-05-22T06:03:03.814Z,10092
2017-05-22T06:04:16.398Z,9992
2017-05-22T06:05:29.001Z,10304
2017-05-22T06:06:41.616Z,11400
2017-05-22T06:07:54.121Z,11128
2017-05-22T06:09:06.395Z,11660
2017-05-22T06:10:18.929Z,12076
2017-05-22T06:11:31.449Z,12088
2017-05-22T06:12:43.702Z,12060
2017-05-22T06:13:56.266Z,13156
2017-05-22T06:15:08.843Z,11376
2017-05-22T06:16:21.459Z,12996
2017-05-22T06:17:34.036Z,14936
2017-05-22T06:18:46.958Z,18688
2017-05-22T06:19:59.547Z,24672
2017-05-22T06:21:12.109Z,17760
2017-05-22T06:22:24.369Z,24704
2017-05-22T06:23:36.957Z,37888
2017-05-22T06:24:48.942Z,30976
2017-05-22T06:26:01.557Z,21984
2017-05-22T06:27:13.852Z,34912
2017-05-22T06:28:26.124Z,31456
2017-05-22T06:29:38.666Z,24480
2017-05-22T06:30:51.217Z,20096
2017-05-22T06:32:03.798Z,29760
2017-05-22T06:33:16.077Z,46368
2017-05-22T06:34:28.647Z,50656
2017-05-22T06:35:40.873Z,36000
2017-05-22T06:36:53.414Z,41152
2017-05-22T06:38:05.933Z,49536
2017-05-22T06:39:18.530Z,38400
2017-05-22T06:40:31.108Z,34784
2017-05-22T06:41:43.420Z,32256
2017-05-22T06:42:56.006Z,32096
2017-05-22T06:44:08.620Z,33984
2017-05-22T06:45:21.210Z,37184
2017-05-22T06:46:33.732Z,41696
2017-05-22T06:47:45.976Z,45088
2017-05-22T06:48:58.283Z,48320
2017-05-22T06:50:10.862Z,49280
2017-05-22T06:51:23.108Z,47008
2017-05-22T06:52:35.667Z,48800
2017-05-22T06:53:47.637Z,50016
2017-05-22T06:54:59.259Z,52608
2017-05-22T06:56:11.530Z,52256
2017-05-22T06:57:23.780Z,52448
2017-05-22T06:58:36.107Z,55136
2017-05-22T06:59:48.661Z,55808
2017-05-22T07:01:01.213Z,53152
2017-05-22T07:02:13.481Z,54048
2017-05-22T07:03:25.731Z,56768
2017-05-22T07:04:38.320Z,56480
2017-05-22T07:05:50.841Z,57856
2017-05-22T07:07:03.061Z,59584
2017-05-22T07:08:15.649Z,58496
2017-05-22T07:09:28.285Z,56800
2017-05-22T07:10:40.549Z,56864
2017-05-22T07:11:53.119Z,59520
2017-05-22T07:13:05.715Z,60608
2017-05-22T07:14:18.318Z,64928
2017-05-22T07:15:30.882Z,63776
2017-05-22T07:16:43.478Z,63360
2017-05-22T07:17:56.050Z,62656
2017-05-22T07:19:08.638Z,59424
2017-05-22T07:20:20.867Z,61760
2017-05-22T07:21:33.444Z,61536
2017-05-22T07:22:46.033Z,57984
2017-05-22T07:23:58.955Z,60352
2017-05-22T07:25:10.900Z,59232
2017-05-22T07:26:23.421Z,52960
2017-05-22T07:27:35.973Z,54496
2017-05-22T07:28:48.226Z,55296
2017-05-22T07:30:00.484Z,48256
2017-05-22T07:31:12.727Z,44256
2017-05-22T07:32:24.999Z,47712
2017-05-22T07:33:37.222Z,54944
2017-05-22T07:34:49.791Z,56576
2017-05-22T07:36:02.370Z,57824
2017-05-22T07:37:14.663Z,59168
2017-05-22T07:38:27.208Z,62368
2017-05-22T07:39:39.793Z,60960
2017-05-22T07:40:52.397Z,60032
2017-05-22T07:42:04.654Z,60640
2017-05-22T07:43:17.238Z,61472
2017-05-22T07:44:29.216Z,62400
2017-05-22T07:45:41.172Z,60832
2017-05-22T07:46:53.726Z,60896
2017-05-22T07:48:06.296Z,63424
2017-05-22T07:49:18.942Z,65472
2017-05-22T07:50:31.557Z,68992
2017-05-22T07:51:43.859Z,72800
2017-05-22T07:52:56.173Z,72160
2017-05-22T07:54:08.727Z,71776
2017-05-22T07:55:21.291Z,72320
2017-05-22T07:56:33.867Z,73696
2017-05-22T07:57:46.457Z,75488
2017-05-22T07:58:58.420Z,74816
2017-05-22T08:00:10.688Z,75072
2017-05-22T08:01:23.278Z,73536
2017-05-22T08:02:35.572Z,74016
2017-05-22T08:03:48.128Z,73312
2017-05-22T08:05:00.698Z,67936
2017-05-22T08:06:13.286Z,69184
2017-05-22T08:07:25.832Z,71360
2017-05-22T08:08:38.388Z,67872
2017-05-22T08:09:50.941Z,70624
2017-05-22T08:11:03.473Z,71904
2017-05-22T08:12:16.015Z,70336
2017-05-22T08:13:28.553Z,72320
2017-05-22T08:14:41.157Z,74304
2017-05-22T08:15:53.760Z,74816
2017-05-22T08:17:06.330Z,71104
2017-05-22T08:18:18.626Z,68576
2017-05-22T08:19:30.923Z,71680
2017-05-22T08:20:43.187Z,74880
2017-05-22T08:21:55.732Z,72416
2017-05-22T08:23:08.017Z,75296
2017-05-22T08:24:20.606Z,77312
2017-05-22T08:25:33.202Z,76832
2017-05-22T08:26:45.792Z,78880
2017-05-22T08:27:58.061Z,80960
2017-05-22T08:29:10.683Z,79264
2017-05-22T08:30:23.247Z,77344
2017-05-22T08:31:35.806Z,77568
2017-05-22T08:32:48.126Z,77536
2017-05-22T08:34:00.103Z,74848
2017-05-22T08:35:12.070Z,69824
2017-05-22T08:36:24.659Z,67744
2017-05-22T08:37:36.308Z,64192
2017-05-22T08:38:48.632Z,57824
2017-05-22T08:40:01.199Z,33632
2017-05-22T08:41:13.491Z,50784
2017-05-22T08:42:26.069Z,44320
2017-05-22T08:43:38.659Z,46208
2017-05-22T08:44:50.656Z,41792
2017-05-22T08:46:03.233Z,37120
2017-05-22T08:47:15.550Z,33152
2017-05-22T08:48:27.492Z,29952
2017-05-22T08:49:40.107Z,26848
2017-05-22T08:50:52.702Z,25984
2017-05-22T08:52:04.705Z,20224
2017-05-22T08:53:16.953Z,27008
2017-05-22T08:54:29.546Z,24896
2017-05-22T08:55:41.174Z,23808
2017-05-22T08:56:53.442Z,25664
2017-05-22T08:58:06.042Z,26912
2017-05-22T08:59:18.606Z,27584
2017-05-22T09:00:31.182Z,26944
2017-05-22T09:01:43.773Z,14496
2017-05-22T09:02:56.386Z,13684
2017-05-22T09:04:08.997Z,14240
2017-05-22T09:05:21.568Z,15196
2017-05-22T09:06:33.881Z,29984
2017-05-22T09:07:46.128Z,20064
2017-05-22T09:08:58.674Z,27904
2017-05-22T09:10:10.626Z,17724
2017-05-22T09:11:23.158Z,17440
2017-05-22T09:12:35.792Z,32032
2017-05-22T09:13:48.114Z,32928
2017-05-22T09:15:00.389Z,25120
2017-05-22T09:16:12.392Z,18112
2017-05-22T09:17:24.894Z,18688
2017-05-22T09:18:37.189Z,19232
2017-05-22T09:19:49.518Z,23456
2017-05-22T09:21:01.789Z,38368
2017-05-22T09:22:14.334Z,38080
2017-05-22T09:23:26.905Z,39424
2017-05-22T09:24:39.445Z,44544
2017-05-22T09:25:52.018Z,45984
2017-05-22T09:27:04.562Z,46816
2017-05-22T09:28:16.831Z,48192
2017-05-22T09:29:28.779Z,22016
2017-05-22T09:30:41.325Z,33984
2017-05-22T09:31:53.602Z,60928
2017-05-22T09:33:06.149Z,67360
2017-05-22T09:34:18.415Z,70944
2017-05-22T09:35:30.983Z,72608
2017-05-22T09:36:43.535Z,72192
2017-05-22T09:37:55.857Z,76736
2017-05-22T09:39:08.448Z,80736
2017-05-22T09:40:21.024Z,78112
2017-05-22T09:41:33.596Z,73216
2017-05-22T09:42:46.140Z,81568
2017-05-22T09:43:58.706Z,82048
2017-05-22T09:45:11.293Z,60928
2017-05-22T09:46:23.914Z,31232
2017-05-22T09:47:36.516Z,78368
2017-05-22T09:48:49.088Z,88704
2017-05-22T09:50:01.617Z,86624
2017-05-22T09:51:13.873Z,87072
2017-05-22T09:52:26.475Z,88512
2017-05-22T09:53:39.103Z,79552
2017-05-22T09:54:51.700Z,32576
2017-05-22T09:56:03.945Z,20704
2017-05-22T09:57:15.941Z,51648
2017-05-22T09:58:28.556Z,60288
2017-05-22T09:59:41.077Z,77824
2017-05-22T10:00:53.315Z,75904
2017-05-22T10:02:05.917Z,27648
2017-05-22T10:03:18.215Z,20128
2017-05-22T10:04:30.211Z,18752
2017-05-22T10:05:42.181Z,22848
2017-05-22T10:06:54.769Z,23040
2017-05-22T10:08:07.379Z,22496
2017-05-22T10:09:19.375Z,46656
2017-05-22T10:10:31.995Z,46208
2017-05-22T10:11:44.042Z,72736
2017-05-22T10:12:56.632Z,86624
2017-05-22T10:14:09.228Z,81600
2017-05-22T10:15:21.831Z,22880
2017-05-22T10:16:34.113Z,21344
2017-05-22T10:17:46.072Z,22400
2017-05-22T10:18:58.668Z,21856
2017-05-22T10:20:10.636Z,21632
2017-05-22T10:21:23.152Z,21344
2017-05-22T10:22:35.399Z,22432
2017-05-22T10:23:47.988Z,26624
2017-05-22T10:25:00.547Z,80576
2017-05-22T10:26:12.843Z,24064
2017-05-22T10:27:25.439Z,28256
2017-05-22T10:28:38.060Z,24928
2017-05-22T10:29:50.356Z,55456
2017-05-22T10:31:02.621Z,32896
2017-05-22T10:32:15.173Z,23360
2017-05-22T10:33:27.437Z,25472
2017-05-22T10:34:39.708Z,75328
2017-05-22T10:35:51.957Z,69536
2017-05-22T10:37:03.951Z,68256
2017-05-22T10:38:16.229Z,74144
2017-05-22T10:39:28.916Z,32288
2017-05-22T10:40:41.538Z,92448
2017-05-22T10:41:53.792Z,97376
2017-05-22T10:43:06.362Z,75104
2017-05-22T10:44:18.926Z,27296
2017-05-22T10:45:31.455Z,19808
2017-05-22T10:46:44.017Z,17332
2017-05-22T10:47:56.297Z,17328
2017-05-22T10:49:08.284Z,17944
2017-05-22T10:50:20.886Z,31584
2017-05-22T10:51:33.518Z,60928
2017-05-22T10:52:46.097Z,53632
2017-05-22T10:53:58.386Z,76160
2017-05-22T10:55:10.670Z,76192
2017-05-22T10:56:22.660Z,78784
2017-05-22T10:57:34.937Z,83648
2017-05-22T10:58:47.519Z,82624
2017-05-22T11:00:00.121Z,81088
2017-05-22T11:01:12.749Z,80128
2017-05-22T11:02:25.007Z,78496
2017-05-22T11:03:37.260Z,77504
2017-05-22T11:04:49.833Z,76352
2017-05-22T11:06:02.378Z,76864
2017-05-22T11:07:14.947Z,79488
2017-05-22T11:08:27.542Z,80288
2017-05-22T11:09:40.142Z,86624
2017-05-22T11:10:52.672Z,68864
2017-05-22T11:12:04.931Z,73952
2017-05-22T11:13:16.877Z,76992
2017-05-22T11:14:29.103Z,80768
2017-05-22T11:15:41.100Z,78656
2017-05-22T11:16:53.096Z,58848
2017-05-22T11:18:05.410Z,19296
2017-05-22T11:19:17.066Z,17684
2017-05-22T11:20:29.659Z,36768
2017-05-22T11:21:41.305Z,73376
2017-05-22T11:22:53.845Z,66272
2017-05-22T11:24:06.432Z,54464
2017-05-22T11:25:18.693Z,46272
2017-05-22T11:26:31.306Z,53120
2017-05-22T11:27:43.579Z,29888
2017-05-22T11:28:55.604Z,71904
2017-05-22T11:30:07.895Z,68416
2017-05-22T11:31:20.459Z,76896
2017-05-22T11:32:33.037Z,76288
2017-05-22T11:33:45.312Z,74336
2017-05-22T11:34:57.615Z,76704
2017-05-22T11:36:10.192Z,79840
2017-05-22T11:37:22.776Z,77824
2017-05-22T11:38:35.065Z,79712
2017-05-22T11:39:47.412Z,77952
2017-05-22T11:40:59.658Z,74944
2017-05-22T11:42:11.896Z,74528
2017-05-22T11:43:24.201Z,73760
2017-05-22T11:44:36.220Z,69952
2017-05-22T11:45:48.235Z,68960
2017-05-22T11:47:00.813Z,73792
2017-05-22T11:48:13.391Z,76928
2017-05-22T11:49:26.007Z,71936
2017-05-22T11:50:38.575Z,70400
2017-05-22T11:51:50.864Z,68736
2017-05-22T11:53:02.841Z,68960
2017-05-22T11:54:15.414Z,70560
2017-05-22T11:55:27.989Z,69920
2017-05-22T11:56:40.305Z,68736
2017-05-22T11:57:52.905Z,68352
2017-05-22T11:59:04.883Z,67744
2017-05-22T12:00:17.241Z,66976
2017-05-22T12:01:29.881Z,65632
2017-05-22T12:02:42.184Z,65216
2017-05-22T12:03:54.158Z,65024
2017-05-22T12:05:06.744Z,65472
2017-05-22T12:06:18.698Z,63296
2017-05-22T12:07:31.000Z,62048
2017-05-22T12:08:43.292Z,61984
2017-05-22T12:09:55.610Z,62112
2017-05-22T12:11:08.131Z,62528
2017-05-22T12:12:20.427Z,62528
2017-05-22T12:13:33.023Z,65088
2017-05-22T12:14:45.576Z,45568
2017-05-22T12:15:58.165Z,20832
2017-05-22T12:17:10.734Z,21632
2017-05-22T12:18:23.024Z,60320
2017-05-22T12:19:35.286Z,60896
2017-05-22T12:20:47.830Z,64960
2017-05-22T12:21:59.802Z,65056
2017-05-22T12:23:12.415Z,66432
2017-05-22T12:24:24.686Z,66304
2017-05-22T12:25:37.242Z,66784
2017-05-22T12:26:49.534Z,67776
2017-05-22T12:28:01.816Z,65760
2017-05-22T12:29:13.795Z,69792
2017-05-22T12:30:26.400Z,70880
2017-05-22T12:31:38.687Z,72320
2017-05-22T12:32:51.264Z,70176
2017-05-22T12:34:03.909Z,68416
2017-05-22T12:35:16.198Z,68928
2017-05-22T12:36:28.801Z,67456
2017-05-22T12:37:41.072Z,67552
2017-05-22T12:38:53.719Z,68448
2017-05-22T12:40:06.288Z,67104
2017-05-22T12:41:18.278Z,63136
2017-05-22T12:42:30.568Z,63840
2017-05-22T12:43:43.150Z,65888
2017-05-22T12:44:55.128Z,65728
2017-05-22T12:46:07.699Z,64128
2017-05-22T12:47:20.265Z,59328
2017-05-22T12:48:32.903Z,18464
2017-05-22T12:49:45.506Z,16848
2017-05-22T12:50:57.204Z,15196
2017-05-22T12:52:09.824Z,14920
2017-05-22T12:53:22.413Z,14884
2017-05-22T12:54:35.014Z,18816
2017-05-22T12:55:46.998Z,18304
2017-05-22T12:56:59.307Z,21856
2017-05-22T12:58:11.896Z,48384
2017-05-22T12:59:23.886Z,56992
2017-05-22T13:00:36.139Z,59776
2017-05-22T13:01:48.702Z,56896
2017-05-22T13:03:00.980Z,56672
2017-05-22T13:04:13.233Z,58208
2017-05-22T13:05:25.498Z,55040
2017-05-22T13:06:38.069Z,50144
2017-05-22T13:07:50.692Z,55808
2017-05-22T13:09:02.966Z,56416
2017-05-22T13:10:15.249Z,13976
2017-05-22T13:11:27.779Z,12808
2017-05-22T13:12:40.326Z,13316
2017-05-22T13:13:52.921Z,22944
2017-05-22T13:15:05.496Z,16996
2017-05-22T13:16:18.087Z,50336
2017-05-22T13:17:30.724Z,55712
2017-05-22T13:18:43.309Z,56512
2017-05-22T13:19:55.597Z,57408
2017-05-22T13:21:07.819Z,53952
2017-05-22T13:22:19.471Z,53088
2017-05-22T13:23:32.111Z,52768
2017-05-22T13:24:44.788Z,52992
2017-05-22T13:25:57.427Z,55808
2017-05-22T13:27:10.091Z,56800
2017-05-22T13:28:22.053Z,54496
2017-05-22T13:29:34.647Z,54048
2017-05-22T13:30:47.261Z,57376
2017-05-22T13:31:59.239Z,59136
2017-05-22T13:33:11.809Z,56832
2017-05-22T13:34:24.353Z,55296
2017-05-22T13:35:36.976Z,53568
2017-05-22T13:36:49.323Z,52224
2017-05-22T13:38:01.605Z,51360
2017-05-22T13:39:14.214Z,54080
2017-05-22T13:40:26.511Z,55584
2017-05-22T13:41:38.801Z,55072
2017-05-22T13:42:51.105Z,54464
2017-05-22T13:44:03.741Z,55616
2017-05-22T13:45:16.262Z,55104
2017-05-22T13:46:28.815Z,54400
2017-05-22T13:47:41.429Z,53856
2017-05-22T13:48:54.032Z,53824
2017-05-22T13:50:06.046Z,51040
2017-05-22T13:51:18.648Z,49504
2017-05-22T13:52:31.287Z,49856
2017-05-22T13:53:43.301Z,13204
2017-05-22T13:54:55.854Z,23552
2017-05-22T13:56:07.824Z,11164
2017-05-22T13:57:20.427Z,11528
2017-05-22T13:58:32.400Z,11604
2017-05-22T13:59:44.963Z,11156
2017-05-22T14:00:56.634Z,16076
2017-05-22T14:02:08.880Z,17984
2017-05-22T14:03:21.493Z,22592
2017-05-22T14:04:34.096Z,41952
2017-05-22T14:05:46.068Z,29536
2017-05-22T14:06:58.020Z,38400
2017-05-22T14:08:10.670Z,47680
2017-05-22T14:09:22.923Z,40576
2017-05-22T14:10:35.501Z,29280
2017-05-22T14:11:48.103Z,43840
2017-05-22T14:13:00.417Z,43616
2017-05-22T14:14:12.696Z,43936
2017-05-22T14:15:25.303Z,43552
2017-05-22T14:16:37.863Z,46368
2017-05-22T14:17:50.452Z,42400
2017-05-22T14:19:02.429Z,39104
2017-05-22T14:20:14.725Z,40352
2017-05-22T14:21:27.290Z,38816
2017-05-22T14:22:39.867Z,37856
2017-05-22T14:23:52.181Z,36416
2017-05-22T14:25:04.433Z,34880
2017-05-22T14:26:16.974Z,32672
2017-05-22T14:27:29.231Z,32096
2017-05-22T14:28:41.522Z,32000
2017-05-22T14:29:54.120Z,31232
2017-05-22T14:31:06.407Z,31200
2017-05-22T14:32:18.677Z,29408
2017-05-22T14:33:30.974Z,29728
2017-05-22T14:34:43.526Z,30624
2017-05-22T14:35:55.839Z,10088
2017-05-22T14:37:08.140Z,9928
2017-05-22T14:38:20.758Z,8820
2017-05-22T14:39:33.007Z,8436
2017-05-22T14:40:45.574Z,8440
2017-05-22T14:41:57.826Z,8532
2017-05-22T14:43:10.092Z,8508
2017-05-22T14:44:22.647Z,8600
2017-05-22T14:45:35.257Z,8716
2017-05-22T14:46:47.547Z,8532
2017-05-22T14:47:59.549Z,8328
2017-05-22T14:49:11.523Z,8324
2017-05-22T14:50:24.058Z,8460
2017-05-22T14:51:36.022Z,8464
2017-05-22T14:52:48.565Z,8364
2017-05-22T14:54:00.527Z,8060
2017-05-22T14:55:12.799Z,7976
2017-05-22T14:56:25.348Z,8356
2017-05-22T14:57:37.917Z,7936
2017-05-22T14:58:49.920Z,7840
2017-05-22T15:00:02.514Z,7876
2017-05-22T15:01:14.786Z,7756
2017-05-22T15:02:27.350Z,7600
2017-05-22T15:03:39.897Z,7340
2017-05-22T15:04:51.899Z,7276
2017-05-22T15:06:04.519Z,7372
2017-05-22T15:07:17.127Z,7644
2017-05-22T15:08:29.674Z,7684
2017-05-22T15:09:42.271Z,7724
2017-05-22T15:10:54.528Z,7876
2017-05-22T15:12:06.194Z,7948
2017-05-22T15:13:18.772Z,7864
2017-05-22T15:14:31.385Z,7876
2017-05-22T15:15:43.387Z,7756
2017-05-22T15:16:56.008Z,7652
2017-05-22T15:18:08.313Z,7144
2017-05-22T15:19:20.568Z,7928
2017-05-22T15:20:32.765Z,8376
2017-05-22T15:21:45.302Z,8612
2017-05-22T15:22:56.985Z,8836
2017-05-22T15:24:09.277Z,8924
2017-05-22T15:25:21.540Z,7940
2017-05-22T15:26:34.069Z,7860
2017-05-22T15:27:46.640Z,7928
2017-05-22T15:28:58.886Z,8456
2017-05-22T15:30:11.110Z,8948
2017-05-22T15:31:23.431Z,9264
2017-05-22T15:32:35.950Z,9312
2017-05-22T15:33:48.473Z,9272
2017-05-22T15:35:01.022Z,9480
2017-05-22T15:36:12.987Z,9608
2017-05-22T15:37:25.539Z,9788
2017-05-22T15:38:37.810Z,10004
2017-05-22T15:39:50.101Z,10264
2017-05-22T15:41:02.301Z,10640
2017-05-22T15:42:14.273Z,10920
2017-05-22T15:43:26.245Z,11148
2017-05-22T15:44:38.789Z,11296
2017-05-22T15:45:51.385Z,11424
2017-05-22T15:47:03.956Z,11488
2017-05-22T15:48:16.195Z,11636
2017-05-22T15:49:28.449Z,11764
2017-05-22T15:50:40.718Z,11824
2017-05-22T15:51:53.308Z,11816
2017-05-22T15:53:05.579Z,11824
2017-05-22T15:54:18.152Z,11844
2017-05-22T15:55:30.078Z,11756
2017-05-22T15:56:42.067Z,11644
2017-05-22T15:57:54.312Z,11436
2017-05-22T15:59:06.910Z,11308
2017-05-22T16:00:19.188Z,11008
2017-05-22T16:01:31.751Z,10592
2017-05-22T16:02:44.278Z,10100